sensor_id;sensor_type;location;lat;lon;timestamp;P1;durP1;ratioP1;P2;durP2;ratioP2
14732;SDS011;7457;50.960;6.830;2024-01-30T00:02:22;13.27;;;10.70;;
14732;SDS011;7457;50.960;6.830;2024-01-30T00:04:47;17.38;;;11.80;;
14732;SDS011;7457;50.960;6.830;2024-01-30T00:07:13;15.70;;;12.05;;
14732;SDS011;7457;50.960;6.830;2024-01-30T00:09:39;12.35;;;11.05;;
14732;SDS011;7457;50.960;6.830;2024-01-30T00:12:05;15.05;;;11.57;;
14732;SDS011;7457;50.960;6.830;2024-01-30T00:14:31;14.88;;;11.68;;
14732;SDS011;7457;50.960;6.830;2024-01-30T00:16:57;16.63;;;12.23;;
14732;SDS011;7457;50.960;6.830;2024-01-30T00:19:23;13.95;;;11.88;;
14732;SDS011;7457;50.960;6.830;2024-01-30T00:21:48;14.57;;;11.63;;
14732;SDS011;7457;50.960;6.830;2024-01-30T00:24:14;15.38;;;12.23;;
14732;SDS011;7457;50.960;6.830;2024-01-30T00:26:40;17.70;;;12.73;;
14732;SDS011;7457;50.960;6.830;2024-01-30T00:29:05;15.23;;;11.82;;
14732;SDS011;7457;50.960;6.830;2024-01-30T00:31:31;14.75;;;11.50;;
14732;SDS011;7457;50.960;6.830;2024-01-30T00:33:57;16.33;;;12.05;;
14732;SDS011;7457;50.960;6.830;2024-01-30T00:36:23;14.80;;;11.32;;
14732;SDS011;7457;50.960;6.830;2024-01-30T00:38:48;18.95;;;11.65;;
14732;SDS011;7457;50.960;6.830;2024-01-30T00:41:14;13.77;;;11.93;;
14732;SDS011;7457;50.960;6.830;2024-01-30T00:43:43;18.17;;;12.48;;
14732;SDS011;7457;50.960;6.830;2024-01-30T00:46:08;17.88;;;12.52;;
14732;SDS011;7457;50.960;6.830;2024-01-30T00:48:34;13.50;;;11.52;;
14732;SDS011;7457;50.960;6.830;2024-01-30T00:51:00;14.95;;;12.07;;
14732;SDS011;7457;50.960;6.830;2024-01-30T00:53:26;13.07;;;11.45;;
14732;SDS011;7457;50.960;6.830;2024-01-30T00:55:51;15.02;;;12.38;;
14732;SDS011;7457;50.960;6.830;2024-01-30T00:58:17;14.88;;;11.70;;
14732;SDS011;7457;50.960;6.830;2024-01-30T01:00:44;15.65;;;12.50;;
14732;SDS011;7457;50.960;6.830;2024-01-30T01:03:10;15.18;;;12.15;;
14732;SDS011;7457;50.960;6.830;2024-01-30T01:05:36;14.90;;;12.07;;
14732;SDS011;7457;50.960;6.830;2024-01-30T01:08:01;14.65;;;11.60;;
14732;SDS011;7457;50.960;6.830;2024-01-30T01:10:27;13.55;;;11.73;;
14732;SDS011;7457;50.960;6.830;2024-01-30T01:12:53;20.23;;;14.20;;
14732;SDS011;7457;50.960;6.830;2024-01-30T01:15:19;17.65;;;11.63;;
14732;SDS011;7457;50.960;6.830;2024-01-30T01:17:45;14.23;;;11.60;;
14732;SDS011;7457;50.960;6.830;2024-01-30T01:20:11;18.15;;;12.00;;
14732;SDS011;7457;50.960;6.830;2024-01-30T01:22:37;18.00;;;12.40;;
14732;SDS011;7457;50.960;6.830;2024-01-30T01:25:04;17.35;;;11.68;;
14732;SDS011;7457;50.960;6.830;2024-01-30T01:27:32;15.30;;;11.75;;
14732;SDS011;7457;50.960;6.830;2024-01-30T01:29:59;19.45;;;12.80;;
14732;SDS011;7457;50.960;6.830;2024-01-30T01:32:25;15.82;;;12.10;;
14732;SDS011;7457;50.960;6.830;2024-01-30T01:34:51;15.77;;;11.82;;
14732;SDS011;7457;50.960;6.830;2024-01-30T01:37:17;17.02;;;12.52;;
14732;SDS011;7457;50.960;6.830;2024-01-30T01:39:43;14.93;;;11.43;;
14732;SDS011;7457;50.960;6.830;2024-01-30T01:42:08;14.93;;;11.32;;
14732;SDS011;7457;50.960;6.830;2024-01-30T01:44:34;16.65;;;12.40;;
14732;SDS011;7457;50.960;6.830;2024-01-30T01:47:00;17.85;;;12.02;;
14732;SDS011;7457;50.960;6.830;2024-01-30T01:49:27;17.77;;;12.40;;
14732;SDS011;7457;50.960;6.830;2024-01-30T01:51:54;18.88;;;11.40;;
14732;SDS011;7457;50.960;6.830;2024-01-30T01:54:23;13.82;;;12.15;;
14732;SDS011;7457;50.960;6.830;2024-01-30T01:56:52;16.33;;;11.95;;
14732;SDS011;7457;50.960;6.830;2024-01-30T01:59:18;16.52;;;12.02;;
14732;SDS011;7457;50.960;6.830;2024-01-30T02:01:45;16.05;;;11.93;;
14732;SDS011;7457;50.960;6.830;2024-01-30T02:04:14;18.15;;;12.55;;
14732;SDS011;7457;50.960;6.830;2024-01-30T02:06:41;14.48;;;12.13;;
14732;SDS011;7457;50.960;6.830;2024-01-30T02:09:07;17.88;;;12.88;;
14732;SDS011;7457;50.960;6.830;2024-01-30T02:11:34;14.25;;;11.52;;
14732;SDS011;7457;50.960;6.830;2024-01-30T02:14:03;16.67;;;12.30;;
14732;SDS011;7457;50.960;6.830;2024-01-30T02:16:30;15.75;;;12.30;;
14732;SDS011;7457;50.960;6.830;2024-01-30T02:18:56;16.70;;;12.23;;
14732;SDS011;7457;50.960;6.830;2024-01-30T02:21:21;14.18;;;12.00;;
14732;SDS011;7457;50.960;6.830;2024-01-30T02:23:47;15.70;;;11.38;;
14732;SDS011;7457;50.960;6.830;2024-01-30T02:26:14;15.05;;;11.95;;
14732;SDS011;7457;50.960;6.830;2024-01-30T02:28:40;13.93;;;10.85;;
14732;SDS011;7457;50.960;6.830;2024-01-30T02:31:06;13.30;;;11.05;;
14732;SDS011;7457;50.960;6.830;2024-01-30T02:33:32;16.02;;;11.23;;
14732;SDS011;7457;50.960;6.830;2024-01-30T02:35:58;14.70;;;11.15;;
14732;SDS011;7457;50.960;6.830;2024-01-30T02:38:24;14.38;;;11.52;;
14732;SDS011;7457;50.960;6.830;2024-01-30T02:40:51;14.88;;;11.27;;
14732;SDS011;7457;50.960;6.830;2024-01-30T02:43:18;12.80;;;10.73;;
14732;SDS011;7457;50.960;6.830;2024-01-30T02:45:43;13.73;;;10.90;;
14732;SDS011;7457;50.960;6.830;2024-01-30T02:48:09;12.57;;;11.05;;
14732;SDS011;7457;50.960;6.830;2024-01-30T02:50:35;14.68;;;11.55;;
14732;SDS011;7457;50.960;6.830;2024-01-30T02:53:00;14.13;;;11.90;;
14732;SDS011;7457;50.960;6.830;2024-01-30T02:55:26;13.95;;;10.65;;
14732;SDS011;7457;50.960;6.830;2024-01-30T02:57:52;13.23;;;11.57;;
14732;SDS011;7457;50.960;6.830;2024-01-30T03:00:18;16.15;;;11.55;;
14732;SDS011;7457;50.960;6.830;2024-01-30T03:02:44;14.43;;;11.50;;
14732;SDS011;7457;50.960;6.830;2024-01-30T03:05:10;13.52;;;11.40;;
14732;SDS011;7457;50.960;6.830;2024-01-30T03:07:36;15.32;;;11.48;;
14732;SDS011;7457;50.960;6.830;2024-01-30T03:10:02;14.80;;;12.25;;
14732;SDS011;7457;50.960;6.830;2024-01-30T03:12:29;14.98;;;11.60;;
14732;SDS011;7457;50.960;6.830;2024-01-30T03:14:54;15.20;;;11.50;;
14732;SDS011;7457;50.960;6.830;2024-01-30T03:17:20;16.25;;;11.57;;
14732;SDS011;7457;50.960;6.830;2024-01-30T03:19:46;15.57;;;11.40;;
14732;SDS011;7457;50.960;6.830;2024-01-30T03:22:11;14.45;;;10.98;;
14732;SDS011;7457;50.960;6.830;2024-01-30T03:24:37;14.38;;;11.05;;
14732;SDS011;7457;50.960;6.830;2024-01-30T03:27:03;15.52;;;11.48;;
14732;SDS011;7457;50.960;6.830;2024-01-30T03:29:29;13.32;;;11.93;;
14732;SDS011;7457;50.960;6.830;2024-01-30T03:31:54;15.75;;;11.38;;
14732;SDS011;7457;50.960;6.830;2024-01-30T03:34:20;12.65;;;10.95;;
14732;SDS011;7457;50.960;6.830;2024-01-30T03:36:46;14.70;;;11.30;;
14732;SDS011;7457;50.960;6.830;2024-01-30T03:39:12;13.27;;;10.98;;
14732;SDS011;7457;50.960;6.830;2024-01-30T03:41:37;14.50;;;11.68;;
14732;SDS011;7457;50.960;6.830;2024-01-30T03:44:03;19.83;;;12.20;;
14732;SDS011;7457;50.960;6.830;2024-01-30T03:46:29;15.85;;;11.20;;
14732;SDS011;7457;50.960;6.830;2024-01-30T03:48:54;13.38;;;11.38;;
14732;SDS011;7457;50.960;6.830;2024-01-30T03:51:20;14.68;;;12.20;;
14732;SDS011;7457;50.960;6.830;2024-01-30T03:53:46;12.85;;;10.68;;
14732;SDS011;7457;50.960;6.830;2024-01-30T03:56:12;17.00;;;12.02;;
14732;SDS011;7457;50.960;6.830;2024-01-30T03:58:40;18.85;;;12.43;;
14732;SDS011;7457;50.960;6.830;2024-01-30T04:01:07;14.23;;;11.38;;
14732;SDS011;7457;50.960;6.830;2024-01-30T04:03:32;14.77;;;10.77;;
14732;SDS011;7457;50.960;6.830;2024-01-30T04:05:58;14.23;;;10.93;;
14732;SDS011;7457;50.960;6.830;2024-01-30T04:08:24;14.85;;;10.73;;
14732;SDS011;7457;50.960;6.830;2024-01-30T04:10:50;14.65;;;10.82;;
14732;SDS011;7457;50.960;6.830;2024-01-30T04:13:15;13.02;;;11.40;;
14732;SDS011;7457;50.960;6.830;2024-01-30T04:15:41;16.00;;;11.48;;
14732;SDS011;7457;50.960;6.830;2024-01-30T04:18:07;15.27;;;11.18;;
14732;SDS011;7457;50.960;6.830;2024-01-30T04:20:33;19.88;;;11.60;;
14732;SDS011;7457;50.960;6.830;2024-01-30T04:22:58;15.45;;;11.63;;
14732;SDS011;7457;50.960;6.830;2024-01-30T04:25:24;13.48;;;11.45;;
14732;SDS011;7457;50.960;6.830;2024-01-30T04:27:50;14.93;;;12.02;;
14732;SDS011;7457;50.960;6.830;2024-01-30T04:30:16;16.88;;;11.95;;
14732;SDS011;7457;50.960;6.830;2024-01-30T04:32:42;14.23;;;10.65;;
14732;SDS011;7457;50.960;6.830;2024-01-30T04:35:08;12.75;;;10.93;;
14732;SDS011;7457;50.960;6.830;2024-01-30T04:37:34;15.13;;;11.02;;
14732;SDS011;7457;50.960;6.830;2024-01-30T04:39:59;13.30;;;10.90;;
14732;SDS011;7457;50.960;6.830;2024-01-30T04:42:25;14.68;;;11.90;;
14732;SDS011;7457;50.960;6.830;2024-01-30T04:44:51;13.77;;;12.27;;
14732;SDS011;7457;50.960;6.830;2024-01-30T04:47:17;12.43;;;10.77;;
14732;SDS011;7457;50.960;6.830;2024-01-30T04:49:42;14.07;;;11.43;;
14732;SDS011;7457;50.960;6.830;2024-01-30T04:52:08;14.60;;;11.60;;
14732;SDS011;7457;50.960;6.830;2024-01-30T04:54:34;15.18;;;10.98;;
14732;SDS011;7457;50.960;6.830;2024-01-30T04:57:01;16.60;;;10.98;;
14732;SDS011;7457;50.960;6.830;2024-01-30T04:59:27;12.95;;;11.05;;
14732;SDS011;7457;50.960;6.830;2024-01-30T05:01:53;15.40;;;11.60;;
14732;SDS011;7457;50.960;6.830;2024-01-30T05:04:19;17.08;;;11.35;;
14732;SDS011;7457;50.960;6.830;2024-01-30T05:06:44;15.70;;;11.73;;
14732;SDS011;7457;50.960;6.830;2024-01-30T05:09:11;13.50;;;11.82;;
14732;SDS011;7457;50.960;6.830;2024-01-30T05:11:37;20.35;;;11.43;;
14732;SDS011;7457;50.960;6.830;2024-01-30T05:14:04;14.35;;;10.82;;
14732;SDS011;7457;50.960;6.830;2024-01-30T05:16:31;16.95;;;11.20;;
14732;SDS011;7457;50.960;6.830;2024-01-30T05:18:57;13.50;;;10.52;;
14732;SDS011;7457;50.960;6.830;2024-01-30T05:21:23;15.65;;;11.07;;
14732;SDS011;7457;50.960;6.830;2024-01-30T05:23:49;18.55;;;11.68;;
14732;SDS011;7457;50.960;6.830;2024-01-30T05:26:15;15.60;;;10.88;;
14732;SDS011;7457;50.960;6.830;2024-01-30T05:28:40;15.25;;;11.90;;
14732;SDS011;7457;50.960;6.830;2024-01-30T05:31:06;13.25;;;11.48;;
14732;SDS011;7457;50.960;6.830;2024-01-30T05:33:32;14.73;;;11.45;;
14732;SDS011;7457;50.960;6.830;2024-01-30T05:35:58;16.00;;;11.77;;
14732;SDS011;7457;50.960;6.830;2024-01-30T05:38:23;16.17;;;10.07;;
14732;SDS011;7457;50.960;6.830;2024-01-30T05:40:49;15.55;;;11.48;;
14732;SDS011;7457;50.960;6.830;2024-01-30T05:43:15;12.93;;;10.55;;
14732;SDS011;7457;50.960;6.830;2024-01-30T05:45:40;13.45;;;10.70;;
14732;SDS011;7457;50.960;6.830;2024-01-30T05:48:06;15.55;;;12.27;;
14732;SDS011;7457;50.960;6.830;2024-01-30T05:50:32;12.70;;;11.07;;
14732;SDS011;7457;50.960;6.830;2024-01-30T05:52:58;13.38;;;11.60;;
14732;SDS011;7457;50.960;6.830;2024-01-30T05:55:23;16.48;;;11.27;;
14732;SDS011;7457;50.960;6.830;2024-01-30T05:57:49;13.55;;;10.50;;
14732;SDS011;7457;50.960;6.830;2024-01-30T06:00:16;13.13;;;10.40;;
14732;SDS011;7457;50.960;6.830;2024-01-30T06:02:42;12.90;;;11.05;;
14732;SDS011;7457;50.960;6.830;2024-01-30T06:05:08;17.65;;;11.13;;
14732;SDS011;7457;50.960;6.830;2024-01-30T06:07:33;11.88;;;9.90;;
14732;SDS011;7457;50.960;6.830;2024-01-30T06:09:59;14.60;;;10.40;;
14732;SDS011;7457;50.960;6.830;2024-01-30T06:12:27;15.98;;;11.38;;
14732;SDS011;7457;50.960;6.830;2024-01-30T06:14:53;13.23;;;10.10;;
14732;SDS011;7457;50.960;6.830;2024-01-30T06:17:22;13.30;;;10.07;;
14732;SDS011;7457;50.960;6.830;2024-01-30T06:19:48;13.23;;;10.15;;
14732;SDS011;7457;50.960;6.830;2024-01-30T06:22:14;19.75;;;9.75;;
14732;SDS011;7457;50.960;6.830;2024-01-30T06:24:40;13.38;;;10.50;;
14732;SDS011;7457;50.960;6.830;2024-01-30T06:27:06;16.52;;;10.35;;
14732;SDS011;7457;50.960;6.830;2024-01-30T06:29:32;11.00;;;9.40;;
14732;SDS011;7457;50.960;6.830;2024-01-30T06:31:57;12.02;;;9.63;;
14732;SDS011;7457;50.960;6.830;2024-01-30T06:34:23;13.25;;;9.07;;
14732;SDS011;7457;50.960;6.830;2024-01-30T06:36:51;15.45;;;10.52;;
14732;SDS011;7457;50.960;6.830;2024-01-30T06:39:17;15.00;;;9.95;;
14732;SDS011;7457;50.960;6.830;2024-01-30T06:41:43;12.90;;;9.15;;
14732;SDS011;7457;50.960;6.830;2024-01-30T06:44:09;15.30;;;10.05;;
14732;SDS011;7457;50.960;6.830;2024-01-30T06:46:35;10.93;;;9.77;;
14732;SDS011;7457;50.960;6.830;2024-01-30T06:49:00;14.88;;;10.38;;
14732;SDS011;7457;50.960;6.830;2024-01-30T06:51:26;12.27;;;9.23;;
14732;SDS011;7457;50.960;6.830;2024-01-30T06:53:52;11.65;;;9.35;;
14732;SDS011;7457;50.960;6.830;2024-01-30T06:56:18;11.68;;;9.60;;
14732;SDS011;7457;50.960;6.830;2024-01-30T06:58:49;14.63;;;9.85;;
14732;SDS011;7457;50.960;6.830;2024-01-30T07:01:15;14.60;;;9.70;;
14732;SDS011;7457;50.960;6.830;2024-01-30T07:03:41;13.40;;;9.30;;
14732;SDS011;7457;50.960;6.830;2024-01-30T07:06:07;12.30;;;9.43;;
14732;SDS011;7457;50.960;6.830;2024-01-30T07:08:34;13.82;;;9.43;;
14732;SDS011;7457;50.960;6.830;2024-01-30T07:11:00;15.40;;;8.77;;
14732;SDS011;7457;50.960;6.830;2024-01-30T07:13:26;11.25;;;9.10;;
14732;SDS011;7457;50.960;6.830;2024-01-30T07:15:53;14.85;;;9.77;;
14732;SDS011;7457;50.960;6.830;2024-01-30T07:18:19;10.70;;;9.13;;
14732;SDS011;7457;50.960;6.830;2024-01-30T07:20:45;13.30;;;9.82;;
14732;SDS011;7457;50.960;6.830;2024-01-30T07:23:14;16.25;;;9.90;;
14732;SDS011;7457;50.960;6.830;2024-01-30T07:25:45;12.88;;;9.93;;
14732;SDS011;7457;50.960;6.830;2024-01-30T07:28:13;13.35;;;10.23;;
14732;SDS011;7457;50.960;6.830;2024-01-30T07:30:41;12.40;;;9.82;;
14732;SDS011;7457;50.960;6.830;2024-01-30T07:33:08;16.35;;;9.90;;
14732;SDS011;7457;50.960;6.830;2024-01-30T07:35:34;13.18;;;9.80;;
14732;SDS011;7457;50.960;6.830;2024-01-30T07:38:00;16.20;;;10.50;;
14732;SDS011;7457;50.960;6.830;2024-01-30T07:40:26;16.15;;;10.27;;
14732;SDS011;7457;50.960;6.830;2024-01-30T07:42:53;16.25;;;11.63;;
14732;SDS011;7457;50.960;6.830;2024-01-30T07:45:19;15.77;;;10.85;;
14732;SDS011;7457;50.960;6.830;2024-01-30T07:47:49;14.80;;;10.40;;
14732;SDS011;7457;50.960;6.830;2024-01-30T07:50:15;13.95;;;10.30;;
14732;SDS011;7457;50.960;6.830;2024-01-30T07:52:42;15.32;;;10.55;;
14732;SDS011;7457;50.960;6.830;2024-01-30T07:55:08;15.80;;;11.73;;
14732;SDS011;7457;50.960;6.830;2024-01-30T07:57:34;17.10;;;11.30;;
14732;SDS011;7457;50.960;6.830;2024-01-30T08:00:00;12.15;;;9.90;;
14732;SDS011;7457;50.960;6.830;2024-01-30T08:02:32;15.43;;;10.27;;
14732;SDS011;7457;50.960;6.830;2024-01-30T08:04:58;15.35;;;10.48;;
14732;SDS011;7457;50.960;6.830;2024-01-30T08:07:23;14.40;;;10.43;;
14732;SDS011;7457;50.960;6.830;2024-01-30T08:09:49;15.52;;;10.90;;
14732;SDS011;7457;50.960;6.830;2024-01-30T08:12:15;15.75;;;11.40;;
14732;SDS011;7457;50.960;6.830;2024-01-30T08:14:42;16.13;;;10.75;;
14732;SDS011;7457;50.960;6.830;2024-01-30T08:17:07;16.85;;;11.00;;
14732;SDS011;7457;50.960;6.830;2024-01-30T08:19:33;13.90;;;10.88;;
14732;SDS011;7457;50.960;6.830;2024-01-30T08:21:59;15.27;;;11.10;;
14732;SDS011;7457;50.960;6.830;2024-01-30T08:24:25;14.18;;;10.90;;
14732;SDS011;7457;50.960;6.830;2024-01-30T08:26:50;15.15;;;11.55;;
14732;SDS011;7457;50.960;6.830;2024-01-30T08:29:16;16.08;;;10.80;;
14732;SDS011;7457;50.960;6.830;2024-01-30T08:31:42;14.55;;;11.13;;
14732;SDS011;7457;50.960;6.830;2024-01-30T08:34:09;16.05;;;10.18;;
14732;SDS011;7457;50.960;6.830;2024-01-30T08:36:35;13.77;;;10.60;;
14732;SDS011;7457;50.960;6.830;2024-01-30T08:39:01;13.07;;;10.70;;
14732;SDS011;7457;50.960;6.830;2024-01-30T08:41:28;14.13;;;10.20;;
14732;SDS011;7457;50.960;6.830;2024-01-30T08:43:53;12.73;;;10.25;;
14732;SDS011;7457;50.960;6.830;2024-01-30T08:46:19;17.75;;;9.75;;
14732;SDS011;7457;50.960;6.830;2024-01-30T08:48:46;12.15;;;10.55;;
14732;SDS011;7457;50.960;6.830;2024-01-30T08:51:12;13.63;;;10.60;;
14732;SDS011;7457;50.960;6.830;2024-01-30T08:53:42;14.35;;;10.35;;
14732;SDS011;7457;50.960;6.830;2024-01-30T08:56:08;13.35;;;10.38;;
14732;SDS011;7457;50.960;6.830;2024-01-30T08:58:34;11.40;;;10.20;;
14732;SDS011;7457;50.960;6.830;2024-01-30T09:01:00;12.23;;;9.68;;
14732;SDS011;7457;50.960;6.830;2024-01-30T09:03:25;12.30;;;9.52;;
14732;SDS011;7457;50.960;6.830;2024-01-30T09:05:55;12.15;;;10.00;;
14732;SDS011;7457;50.960;6.830;2024-01-30T09:08:21;13.02;;;10.30;;
14732;SDS011;7457;50.960;6.830;2024-01-30T09:10:46;13.27;;;10.10;;
14732;SDS011;7457;50.960;6.830;2024-01-30T09:13:13;14.93;;;10.68;;
14732;SDS011;7457;50.960;6.830;2024-01-30T09:15:38;12.85;;;10.23;;
14732;SDS011;7457;50.960;6.830;2024-01-30T09:18:04;16.48;;;10.13;;
14732;SDS011;7457;50.960;6.830;2024-01-30T09:20:30;15.68;;;9.80;;
14732;SDS011;7457;50.960;6.830;2024-01-30T09:22:56;15.68;;;9.80;;
14732;SDS011;7457;50.960;6.830;2024-01-30T09:25:22;12.20;;;9.80;;
14732;SDS011;7457;50.960;6.830;2024-01-30T09:27:47;11.65;;;9.38;;
14732;SDS011;7457;50.960;6.830;2024-01-30T09:30:14;14.40;;;10.40;;
14732;SDS011;7457;50.960;6.830;2024-01-30T09:32:40;12.13;;;9.85;;
14732;SDS011;7457;50.960;6.830;2024-01-30T09:35:06;14.02;;;10.02;;
14732;SDS011;7457;50.960;6.830;2024-01-30T09:37:32;13.30;;;10.35;;
14732;SDS011;7457;50.960;6.830;2024-01-30T09:39:57;10.80;;;9.00;;
14732;SDS011;7457;50.960;6.830;2024-01-30T09:42:35;12.23;;;9.60;;
14732;SDS011;7457;50.960;6.830;2024-01-30T09:45:04;13.15;;;10.18;;
14732;SDS011;7457;50.960;6.830;2024-01-30T09:47:41;11.23;;;9.23;;
14732;SDS011;7457;50.960;6.830;2024-01-30T09:50:09;14.45;;;9.85;;
14732;SDS011;7457;50.960;6.830;2024-01-30T09:52:35;17.17;;;10.07;;
14732;SDS011;7457;50.960;6.830;2024-01-30T09:55:02;11.32;;;9.20;;
14732;SDS011;7457;50.960;6.830;2024-01-30T09:57:28;12.48;;;9.02;;
14732;SDS011;7457;50.960;6.830;2024-01-30T09:59:54;11.20;;;9.32;;
14732;SDS011;7457;50.960;6.830;2024-01-30T10:02:20;12.88;;;10.80;;
14732;SDS011;7457;50.960;6.830;2024-01-30T10:04:49;13.55;;;9.52;;
14732;SDS011;7457;50.960;6.830;2024-01-30T10:07:19;14.60;;;10.75;;
14732;SDS011;7457;50.960;6.830;2024-01-30T10:09:46;18.25;;;10.77;;
14732;SDS011;7457;50.960;6.830;2024-01-30T10:12:12;16.38;;;10.20;;
14732;SDS011;7457;50.960;6.830;2024-01-30T10:14:38;12.18;;;9.45;;
14732;SDS011;7457;50.960;6.830;2024-01-30T10:17:04;13.93;;;10.50;;
14732;SDS011;7457;50.960;6.830;2024-01-30T10:19:31;14.18;;;9.85;;
14732;SDS011;7457;50.960;6.830;2024-01-30T10:21:57;11.23;;;9.73;;
14732;SDS011;7457;50.960;6.830;2024-01-30T10:24:24;18.88;;;9.60;;
14732;SDS011;7457;50.960;6.830;2024-01-30T10:26:50;11.73;;;10.38;;
14732;SDS011;7457;50.960;6.830;2024-01-30T10:29:17;11.70;;;8.88;;
14732;SDS011;7457;50.960;6.830;2024-01-30T10:31:43;13.60;;;10.40;;
14732;SDS011;7457;50.960;6.830;2024-01-30T10:34:08;14.15;;;10.15;;
14732;SDS011;7457;50.960;6.830;2024-01-30T10:36:37;17.00;;;9.95;;
14732;SDS011;7457;50.960;6.830;2024-01-30T10:39:06;13.35;;;9.50;;
14732;SDS011;7457;50.960;6.830;2024-01-30T10:41:32;15.85;;;10.25;;
14732;SDS011;7457;50.960;6.830;2024-01-30T10:44:08;13.80;;;10.40;;
14732;SDS011;7457;50.960;6.830;2024-01-30T10:46:35;16.75;;;10.40;;
14732;SDS011;7457;50.960;6.830;2024-01-30T10:49:02;18.60;;;11.00;;
14732;SDS011;7457;50.960;6.830;2024-01-30T10:51:29;14.35;;;9.85;;
14732;SDS011;7457;50.960;6.830;2024-01-30T10:53:57;11.90;;;9.82;;
14732;SDS011;7457;50.960;6.830;2024-01-30T10:56:23;13.68;;;10.45;;
14732;SDS011;7457;50.960;6.830;2024-01-30T10:58:50;15.00;;;10.48;;
14732;SDS011;7457;50.960;6.830;2024-01-30T11:01:21;11.73;;;9.68;;
14732;SDS011;7457;50.960;6.830;2024-01-30T11:03:54;14.60;;;10.10;;
14732;SDS011;7457;50.960;6.830;2024-01-30T11:06:22;12.27;;;9.50;;
14732;SDS011;7457;50.960;6.830;2024-01-30T11:09:04;12.35;;;9.55;;
14732;SDS011;7457;50.960;6.830;2024-01-30T11:14:29;13.07;;;9.15;;
14732;SDS011;7457;50.960;6.830;2024-01-30T11:16:58;14.13;;;8.98;;
14732;SDS011;7457;50.960;6.830;2024-01-30T11:19:25;20.25;;;10.15;;
14732;SDS011;7457;50.960;6.830;2024-01-30T11:21:54;18.50;;;9.55;;
14732;SDS011;7457;50.960;6.830;2024-01-30T11:24:22;12.60;;;9.60;;
14732;SDS011;7457;50.960;6.830;2024-01-30T11:26:57;19.30;;;9.35;;
14732;SDS011;7457;50.960;6.830;2024-01-30T11:29:24;16.05;;;9.68;;
14732;SDS011;7457;50.960;6.830;2024-01-30T11:31:55;13.68;;;8.88;;
14732;SDS011;7457;50.960;6.830;2024-01-30T11:34:22;16.88;;;9.48;;
14732;SDS011;7457;50.960;6.830;2024-01-30T11:36:51;10.95;;;8.75;;
14732;SDS011;7457;50.960;6.830;2024-01-30T11:39:20;16.83;;;11.38;;
14732;SDS011;7457;50.960;6.830;2024-01-30T11:41:47;13.25;;;9.75;;
14732;SDS011;7457;50.960;6.830;2024-01-30T11:44:16;16.65;;;9.93;;
14732;SDS011;7457;50.960;6.830;2024-01-30T11:46:41;18.70;;;9.05;;
14732;SDS011;7457;50.960;6.830;2024-01-30T11:49:07;14.77;;;9.43;;
14732;SDS011;7457;50.960;6.830;2024-01-30T11:51:33;15.30;;;9.57;;
14732;SDS011;7457;50.960;6.830;2024-01-30T11:53:59;13.05;;;9.25;;
14732;SDS011;7457;50.960;6.830;2024-01-30T11:56:25;14.20;;;9.85;;
14732;SDS011;7457;50.960;6.830;2024-01-30T11:58:52;12.48;;;9.55;;
14732;SDS011;7457;50.960;6.830;2024-01-30T12:01:17;16.42;;;9.75;;
14732;SDS011;7457;50.960;6.830;2024-01-30T12:03:49;11.30;;;8.85;;
14732;SDS011;7457;50.960;6.830;2024-01-30T12:06:15;15.73;;;9.38;;
14732;SDS011;7457;50.960;6.830;2024-01-30T12:08:41;13.60;;;9.52;;
14732;SDS011;7457;50.960;6.830;2024-01-30T12:11:07;12.98;;;9.30;;
14732;SDS011;7457;50.960;6.830;2024-01-30T12:13:33;10.98;;;9.27;;
14732;SDS011;7457;50.960;6.830;2024-01-30T12:16:02;13.32;;;9.43;;
14732;SDS011;7457;50.960;6.830;2024-01-30T12:18:28;13.38;;;9.10;;
14732;SDS011;7457;50.960;6.830;2024-01-30T12:20:57;12.07;;;8.60;;
14732;SDS011;7457;50.960;6.830;2024-01-30T12:23:24;11.15;;;9.07;;
14732;SDS011;7457;50.960;6.830;2024-01-30T12:25:52;13.75;;;8.85;;
14732;SDS011;7457;50.960;6.830;2024-01-30T12:28:18;11.48;;;9.02;;
14732;SDS011;7457;50.960;6.830;2024-01-30T12:30:44;10.88;;;9.23;;
14732;SDS011;7457;50.960;6.830;2024-01-30T12:33:15;18.17;;;9.80;;
14732;SDS011;7457;50.960;6.830;2024-01-30T12:35:45;14.48;;;9.45;;
14732;SDS011;7457;50.960;6.830;2024-01-30T12:38:11;12.88;;;8.77;;
14732;SDS011;7457;50.960;6.830;2024-01-30T12:40:37;18.08;;;9.63;;
14732;SDS011;7457;50.960;6.830;2024-01-30T12:43:03;18.15;;;9.45;;
14732;SDS011;7457;50.960;6.830;2024-01-30T12:45:29;11.07;;;8.73;;
14732;SDS011;7457;50.960;6.830;2024-01-30T12:47:55;14.07;;;8.88;;
14732;SDS011;7457;50.960;6.830;2024-01-30T12:50:21;11.25;;;8.48;;
14732;SDS011;7457;50.960;6.830;2024-01-30T12:52:47;11.80;;;8.32;;
14732;SDS011;7457;50.960;6.830;2024-01-30T12:55:14;12.73;;;9.57;;
14732;SDS011;7457;50.960;6.830;2024-01-30T12:57:40;12.75;;;9.13;;
14732;SDS011;7457;50.960;6.830;2024-01-30T13:00:07;12.48;;;8.13;;
14732;SDS011;7457;50.960;6.830;2024-01-30T13:02:33;13.18;;;7.72;;
14732;SDS011;7457;50.960;6.830;2024-01-30T13:05:04;10.40;;;6.78;;
14732;SDS011;7457;50.960;6.830;2024-01-30T13:07:31;8.40;;;5.60;;
14732;SDS011;7457;50.960;6.830;2024-01-30T13:09:57;11.38;;;5.53;;
14732;SDS011;7457;50.960;6.830;2024-01-30T13:12:31;10.07;;;5.32;;
14732;SDS011;7457;50.960;6.830;2024-01-30T13:14:58;9.20;;;5.43;;
14732;SDS011;7457;50.960;6.830;2024-01-30T13:17:26;9.57;;;5.50;;
14732;SDS011;7457;50.960;6.830;2024-01-30T13:19:52;11.38;;;5.60;;
14732;SDS011;7457;50.960;6.830;2024-01-30T13:22:19;9.63;;;5.22;;
14732;SDS011;7457;50.960;6.830;2024-01-30T13:24:48;7.97;;;4.90;;
14732;SDS011;7457;50.960;6.830;2024-01-30T13:27:14;7.43;;;4.95;;
14732;SDS011;7457;50.960;6.830;2024-01-30T13:29:39;10.07;;;4.85;;
14732;SDS011;7457;50.960;6.830;2024-01-30T13:32:05;7.72;;;5.15;;
14732;SDS011;7457;50.960;6.830;2024-01-30T13:34:31;10.82;;;5.88;;
14732;SDS011;7457;50.960;6.830;2024-01-30T13:36:57;9.07;;;5.65;;
14732;SDS011;7457;50.960;6.830;2024-01-30T13:39:23;8.65;;;5.20;;
14732;SDS011;7457;50.960;6.830;2024-01-30T13:41:48;8.50;;;5.47;;
14732;SDS011;7457;50.960;6.830;2024-01-30T13:44:15;10.80;;;6.45;;
14732;SDS011;7457;50.960;6.830;2024-01-30T13:46:44;6.85;;;5.32;;
14732;SDS011;7457;50.960;6.830;2024-01-30T13:49:10;8.00;;;5.53;;
14732;SDS011;7457;50.960;6.830;2024-01-30T13:51:35;10.68;;;6.40;;
14732;SDS011;7457;50.960;6.830;2024-01-30T13:54:01;11.90;;;6.10;;
14732;SDS011;7457;50.960;6.830;2024-01-30T13:56:27;9.10;;;6.07;;
14732;SDS011;7457;50.960;6.830;2024-01-30T13:58:53;10.50;;;5.80;;
14732;SDS011;7457;50.960;6.830;2024-01-30T14:01:20;8.55;;;6.15;;
14732;SDS011;7457;50.960;6.830;2024-01-30T14:03:46;11.57;;;5.97;;
14732;SDS011;7457;50.960;6.830;2024-01-30T14:06:12;11.55;;;5.75;;
14732;SDS011;7457;50.960;6.830;2024-01-30T14:08:38;7.00;;;5.93;;
14732;SDS011;7457;50.960;6.830;2024-01-30T14:11:04;12.20;;;5.78;;
14732;SDS011;7457;50.960;6.830;2024-01-30T14:13:29;10.57;;;6.55;;
14732;SDS011;7457;50.960;6.830;2024-01-30T14:15:57;14.57;;;6.35;;
14732;SDS011;7457;50.960;6.830;2024-01-30T14:18:23;9.93;;;6.63;;
14732;SDS011;7457;50.960;6.830;2024-01-30T14:20:50;11.93;;;5.93;;
14732;SDS011;7457;50.960;6.830;2024-01-30T14:23:17;9.25;;;6.38;;
14732;SDS011;7457;50.960;6.830;2024-01-30T14:25:43;11.93;;;6.75;;
14732;SDS011;7457;50.960;6.830;2024-01-30T14:28:09;10.60;;;6.68;;
14732;SDS011;7457;50.960;6.830;2024-01-30T14:30:35;10.07;;;6.57;;
14732;SDS011;7457;50.960;6.830;2024-01-30T14:33:01;12.43;;;6.40;;
14732;SDS011;7457;50.960;6.830;2024-01-30T14:35:27;12.43;;;7.00;;
14732;SDS011;7457;50.960;6.830;2024-01-30T14:37:53;12.77;;;6.38;;
14732;SDS011;7457;50.960;6.830;2024-01-30T14:40:19;8.73;;;6.32;;